QTR6P EDDF-OTHH
Flight info
| Callsign | QTR6P |
|---|---|
| Flight time | 5h 18m |
| Altitude | 41000 |
| Route | SULUS4L SULUS Z650 VEMUT/N0480F390 DCT ETVIS DCT BUDWA/N0480F410 DCT BUDEX DCT ARSIN DCT BABIT DCT OSVIX DCT NISVA DCT USALI/N0480F350 DCT OTKOK DCT RODIP/N0480F330 DCT BELGI UT38 VESAR DCT NIKAS R785 RASLI P559 TRF R23 NEVOL N318 TAMRO DCT KINIB Z511 GISRA L681 ORLEK |
| Aircraft | A359/H-SDE2E3GHIJ3J4J5LM1ORWXY/LB1D1 |
Departure
| Time | 2026-05-05 14:14 |
|---|---|
| Airport | Frankfurt Main Airport (EDDF) |
Arrival
| Time | 2026-05-05 19:33 |
|---|---|
| Airport | Hamad International Airport (OTHH) |
| Time | Latitude | Longitude | Altitude | Speed | Heading |
|---|---|---|---|---|---|
| 2026-05-05 13:39 | 50.03106 | 8.57662 | 363 ft | 0 kts | 205° |
| 2026-05-05 13:41 | 50.03106 | 8.57663 | 363 ft | 0 kts | 205° |
| 2026-05-05 13:51 | 50.03107 | 8.57663 | 362 ft | 0 kts | 205° |
| 2026-05-05 14:00 | 50.03108 | 8.57664 | 363 ft | 0 kts | 205° |
| 2026-05-05 14:01 | 50.03122 | 8.57674 | 367 ft | 2 kts | 206° |
| 2026-05-05 14:01 | 50.03137 | 8.57686 | 366 ft | 2 kts | 207° |
| 2026-05-05 14:01 | 50.03151 | 8.57698 | 368 ft | 2 kts | 210° |
| 2026-05-05 14:01 | 50.03165 | 8.57712 | 368 ft | 2 kts | 216° |
| 2026-05-05 14:02 | 50.03178 | 8.57728 | 364 ft | 2 kts | 232° |
| 2026-05-05 14:02 | 50.03184 | 8.57751 | 367 ft | 2 kts | 280° |
| 2026-05-05 14:02 | 50.03181 | 8.57765 | 366 ft | 0 kts | 294° |
| 2026-05-05 14:02 | 50.03181 | 8.57766 | 366 ft | 0 kts | 294° |
| 2026-05-05 14:04 | 50.03182 | 8.57763 | 366 ft | 3 kts | 295° |
| 2026-05-05 14:05 | 50.03205 | 8.57690 | 365 ft | 9 kts | 296° |
| 2026-05-05 14:05 | 50.03234 | 8.57595 | 369 ft | 11 kts | 296° |
| 2026-05-05 14:05 | 50.03266 | 8.57485 | 365 ft | 12 kts | 294° |
| 2026-05-05 14:05 | 50.03302 | 8.57359 | 365 ft | 13 kts | 295° |
| 2026-05-05 14:06 | 50.03342 | 8.57226 | 368 ft | 14 kts | 294° |
| 2026-05-05 14:06 | 50.03341 | 8.57069 | 361 ft | 16 kts | 251° |
| 2026-05-05 14:06 | 50.03302 | 8.56900 | 367 ft | 17 kts | 250° |
| 2026-05-05 14:06 | 50.03259 | 8.56718 | 362 ft | 17 kts | 250° |
| 2026-05-05 14:07 | 50.03217 | 8.56541 | 363 ft | 18 kts | 250° |
| 2026-05-05 14:07 | 50.03174 | 8.56358 | 361 ft | 18 kts | 250° |
| 2026-05-05 14:07 | 50.03127 | 8.56163 | 360 ft | 20 kts | 250° |
| 2026-05-05 14:07 | 50.03077 | 8.55952 | 355 ft | 21 kts | 250° |
| 2026-05-05 14:08 | 50.03024 | 8.55734 | 357 ft | 22 kts | 249° |
| 2026-05-05 14:08 | 50.02977 | 8.55537 | 354 ft | 16 kts | 250° |
| 2026-05-05 14:08 | 50.02938 | 8.55372 | 358 ft | 17 kts | 249° |
| 2026-05-05 14:08 | 50.02896 | 8.55201 | 357 ft | 17 kts | 249° |
| 2026-05-05 14:09 | 50.02853 | 8.55018 | 356 ft | 19 kts | 249° |
| 2026-05-05 14:09 | 50.02806 | 8.54820 | 358 ft | 20 kts | 250° |
| 2026-05-05 14:09 | 50.02755 | 8.54612 | 356 ft | 21 kts | 249° |
| 2026-05-05 14:09 | 50.02704 | 8.54397 | 357 ft | 22 kts | 249° |
| 2026-05-05 14:10 | 50.02660 | 8.54168 | 352 ft | 23 kts | 249° |
| 2026-05-05 14:10 | 50.02602 | 8.53927 | 348 ft | 24 kts | 249° |
| 2026-05-05 14:10 | 50.02544 | 8.53679 | 348 ft | 24 kts | 251° |
| 2026-05-05 14:10 | 50.02486 | 8.53439 | 350 ft | 24 kts | 249° |
| 2026-05-05 14:11 | 50.02429 | 8.53207 | 353 ft | 24 kts | 249° |
| 2026-05-05 14:11 | 50.02421 | 8.52984 | 335 ft | 20 kts | 296° |
| 2026-05-05 14:11 | 50.02517 | 8.52834 | 349 ft | 19 kts | 343° |
| 2026-05-05 14:11 | 50.02653 | 8.52827 | 342 ft | 20 kts | 0° |
| 2026-05-05 14:12 | 50.02797 | 8.52825 | 350 ft | 21 kts | 360° |
| 2026-05-05 14:12 | 50.02916 | 8.52808 | 353 ft | 12 kts | 329° |
| 2026-05-05 14:12 | 50.02939 | 8.52685 | 348 ft | 12 kts | 267° |
| 2026-05-05 14:12 | 50.02906 | 8.52604 | 350 ft | 8 kts | 200° |
| 2026-05-05 14:13 | 50.02873 | 8.52599 | 348 ft | 0 kts | 181° |
| 2026-05-05 14:13 | 50.02812 | 8.52599 | 349 ft | 36 kts | 179° |
| 2026-05-05 14:13 | 50.02325 | 8.52603 | 348 ft | 101 kts | 180° |
| 2026-05-05 14:13 | 50.01427 | 8.52611 | 337 ft | 155 kts | 179° |
| 2026-05-05 14:14 | 50.00275 | 8.52631 | 895 ft | 158 kts | 181° |
| 2026-05-05 14:14 | 49.99173 | 8.52685 | 1638 ft | 159 kts | 179° |
| 2026-05-05 14:14 | 49.97995 | 8.52728 | 1972 ft | 180 kts | 180° |
| 2026-05-05 14:14 | 49.96737 | 8.53249 | 2220 ft | 204 kts | 151° |
| 2026-05-05 14:15 | 49.95743 | 8.54925 | 2593 ft | 223 kts | 123° |
| 2026-05-05 14:15 | 49.94975 | 8.57056 | 3233 ft | 228 kts | 121° |
| 2026-05-05 14:15 | 49.94269 | 8.59314 | 3940 ft | 232 kts | 111° |
| 2026-05-05 14:15 | 49.93955 | 8.61786 | 4447 ft | 246 kts | 97° |
| 2026-05-05 14:16 | 49.93845 | 8.64532 | 4880 ft | 263 kts | 94° |
| 2026-05-05 14:16 | 49.93709 | 8.67387 | 5539 ft | 268 kts | 101° |
| 2026-05-05 14:16 | 49.93001 | 8.70030 | 6266 ft | 267 kts | 129° |
| 2026-05-05 14:16 | 49.91637 | 8.71961 | 7004 ft | 267 kts | 145° |
| 2026-05-05 14:17 | 49.90112 | 8.73636 | 7808 ft | 270 kts | 147° |
| 2026-05-05 14:17 | 49.88638 | 8.75470 | 8587 ft | 275 kts | 135° |
| 2026-05-05 14:17 | 49.87534 | 8.77905 | 9529 ft | 278 kts | 122° |
| 2026-05-05 14:17 | 49.86570 | 8.80557 | 10380 ft | 289 kts | 120° |
| 2026-05-05 14:18 | 49.85562 | 8.83365 | 10935 ft | 308 kts | 120° |
| 2026-05-05 14:18 | 49.84479 | 8.86351 | 11536 ft | 328 kts | 120° |
| 2026-05-05 14:18 | 49.83340 | 8.89506 | 11921 ft | 344 kts | 121° |
| 2026-05-05 14:18 | 49.82146 | 8.92814 | 12460 ft | 358 kts | 120° |
| 2026-05-05 14:19 | 49.80912 | 8.96221 | 13111 ft | 365 kts | 121° |
| 2026-05-05 14:19 | 49.79662 | 8.99665 | 13795 ft | 370 kts | 121° |
| 2026-05-05 14:19 | 49.78390 | 9.03163 | 14414 ft | 375 kts | 121° |
| 2026-05-05 14:19 | 49.77106 | 9.06694 | 15053 ft | 379 kts | 121° |
| 2026-05-05 14:20 | 49.76029 | 9.10440 | 15652 ft | 385 kts | 109° |
| 2026-05-05 14:20 | 49.75315 | 9.14471 | 16265 ft | 390 kts | 106° |
| 2026-05-05 14:20 | 49.74673 | 9.18567 | 16887 ft | 394 kts | 105° |
| 2026-05-05 14:20 | 49.74025 | 9.22700 | 17553 ft | 398 kts | 106° |
| 2026-05-05 14:21 | 49.73354 | 9.26877 | 18225 ft | 402 kts | 106° |
| 2026-05-05 14:21 | 49.72672 | 9.31094 | 18815 ft | 406 kts | 106° |
| 2026-05-05 14:21 | 49.71982 | 9.35349 | 19424 ft | 410 kts | 107° |
| 2026-05-05 14:21 | 49.71284 | 9.39636 | 20033 ft | 413 kts | 107° |
| 2026-05-05 14:22 | 49.70577 | 9.43963 | 20648 ft | 417 kts | 107° |
| 2026-05-05 14:22 | 49.69864 | 9.48314 | 21249 ft | 420 kts | 107° |
| 2026-05-05 14:22 | 49.69142 | 9.52704 | 21796 ft | 424 kts | 107° |
| 2026-05-05 14:22 | 49.68412 | 9.57134 | 22340 ft | 428 kts | 107° |
| 2026-05-05 14:23 | 49.67689 | 9.61608 | 22916 ft | 431 kts | 105° |
| 2026-05-05 14:23 | 49.67294 | 9.66226 | 23464 ft | 438 kts | 94° |
| 2026-05-05 14:23 | 49.67580 | 9.70944 | 23919 ft | 446 kts | 80° |
| 2026-05-05 14:23 | 49.68340 | 9.75612 | 24381 ft | 451 kts | 77° |
| 2026-05-05 14:24 | 49.69183 | 9.80289 | 24862 ft | 454 kts | 77° |
| 2026-05-05 14:24 | 49.70030 | 9.84999 | 25333 ft | 457 kts | 77° |
| 2026-05-05 14:24 | 49.70889 | 9.89751 | 25788 ft | 461 kts | 76° |
| 2026-05-05 14:24 | 49.72021 | 9.94427 | 26243 ft | 468 kts | 67° |
| 2026-05-05 14:25 | 49.73655 | 9.98809 | 26637 ft | 475 kts | 58° |
| 2026-05-05 14:25 | 49.75564 | 10.03015 | 27014 ft | 480 kts | 57° |
| 2026-05-05 14:25 | 49.77526 | 10.07223 | 27402 ft | 485 kts | 57° |
| 2026-05-05 14:25 | 49.79503 | 10.11471 | 27827 ft | 488 kts | 57° |
| 2026-05-05 14:26 | 49.81488 | 10.15757 | 28273 ft | 491 kts | 57° |
| 2026-05-05 14:26 | 49.83482 | 10.20078 | 28695 ft | 495 kts | 57° |
| 2026-05-05 14:26 | 49.85462 | 10.24381 | 29109 ft | 498 kts | 57° |
| 2026-05-05 14:26 | 49.87474 | 10.28763 | 29508 ft | 501 kts | 57° |
| 2026-05-05 14:27 | 49.89502 | 10.33189 | 29883 ft | 504 kts | 57° |
| 2026-05-05 14:27 | 49.91537 | 10.37638 | 30206 ft | 507 kts | 57° |
| 2026-05-05 14:27 | 49.93582 | 10.42119 | 30518 ft | 510 kts | 57° |
| 2026-05-05 14:27 | 49.95637 | 10.46627 | 30804 ft | 513 kts | 57° |
| 2026-05-05 14:28 | 49.97705 | 10.51175 | 31051 ft | 517 kts | 57° |
| 2026-05-05 14:28 | 49.99784 | 10.55754 | 31296 ft | 520 kts | 57° |
| 2026-05-05 14:28 | 50.01839 | 10.60404 | 31522 ft | 522 kts | 60° |
| 2026-05-05 14:28 | 50.03535 | 10.65371 | 31866 ft | 519 kts | 70° |
| 2026-05-05 14:29 | 50.04676 | 10.70658 | 32290 ft | 513 kts | 80° |
| 2026-05-05 14:29 | 50.05221 | 10.76091 | 32667 ft | 507 kts | 90° |
| 2026-05-05 14:29 | 50.05174 | 10.81540 | 33034 ft | 500 kts | 100° |
| 2026-05-05 14:29 | 50.04564 | 10.86807 | 33398 ft | 493 kts | 110° |
| 2026-05-05 14:30 | 50.03605 | 10.91919 | 33762 ft | 490 kts | 112° |
| 2026-05-05 14:30 | 50.02559 | 10.96956 | 34106 ft | 488 kts | 113° |
| 2026-05-05 14:30 | 50.01474 | 11.01959 | 34353 ft | 489 kts | 113° |
| 2026-05-05 14:30 | 50.00370 | 11.06978 | 34456 ft | 493 kts | 113° |
| 2026-05-05 14:31 | 49.99260 | 11.12036 | 34713 ft | 494 kts | 113° |
| 2026-05-05 14:31 | 49.98161 | 11.17087 | 35041 ft | 493 kts | 113° |
| 2026-05-05 14:31 | 49.97070 | 11.22137 | 35357 ft | 492 kts | 113° |
| 2026-05-05 14:31 | 49.95992 | 11.27170 | 35625 ft | 492 kts | 112° |
| 2026-05-05 14:32 | 49.95283 | 11.30507 | 35797 ft | 492 kts | 112° |
| 2026-05-05 14:32 | 49.94215 | 11.35548 | 36058 ft | 491 kts | 112° |
| 2026-05-05 14:32 | 49.93145 | 11.40589 | 36307 ft | 491 kts | 112° |
| 2026-05-05 14:32 | 49.92111 | 11.45641 | 36503 ft | 493 kts | 110° |
| 2026-05-05 14:33 | 49.90856 | 11.52426 | 36760 ft | 495 kts | 109° |
| 2026-05-05 14:33 | 49.89944 | 11.57566 | 36995 ft | 495 kts | 109° |
| 2026-05-05 14:33 | 49.89328 | 11.61047 | 37158 ft | 494 kts | 109° |
| 2026-05-05 14:33 | 49.88457 | 11.66199 | 37390 ft | 496 kts | 105° |
| 2026-05-05 14:34 | 49.87865 | 11.71406 | 37604 ft | 497 kts | 102° |
| 2026-05-05 14:34 | 49.87345 | 11.76780 | 37829 ft | 498 kts | 101° |
| 2026-05-05 14:34 | 49.86870 | 11.82019 | 38028 ft | 498 kts | 101° |
| 2026-05-05 14:34 | 49.86404 | 11.87330 | 38229 ft | 498 kts | 101° |
| 2026-05-05 14:35 | 49.85939 | 11.92646 | 38356 ft | 499 kts | 101° |
| 2026-05-05 14:35 | 49.85470 | 11.97974 | 38512 ft | 499 kts | 101° |
| 2026-05-05 14:35 | 49.85000 | 12.03293 | 38665 ft | 499 kts | 101° |
| 2026-05-05 14:35 | 49.84524 | 12.08628 | 38750 ft | 500 kts | 101° |
| 2026-05-05 14:36 | 49.83556 | 12.19282 | 38763 ft | 499 kts | 101° |
| 2026-05-05 14:36 | 49.82580 | 12.29924 | 38759 ft | 499 kts | 101° |
| 2026-05-05 14:37 | 49.81512 | 12.40554 | 38766 ft | 499 kts | 106° |
| 2026-05-05 14:37 | 49.79050 | 12.50462 | 38765 ft | 490 kts | 124° |
| 2026-05-05 14:38 | 49.75397 | 12.59334 | 38763 ft | 489 kts | 128° |
| 2026-05-05 14:38 | 49.71539 | 12.67994 | 38754 ft | 489 kts | 128° |
| 2026-05-05 14:39 | 49.67670 | 12.76619 | 38755 ft | 490 kts | 128° |
| 2026-05-05 14:39 | 49.63803 | 12.85295 | 38755 ft | 491 kts | 128° |
| 2026-05-05 14:40 | 49.59941 | 12.93980 | 38752 ft | 491 kts | 128° |
| 2026-05-05 14:40 | 49.56074 | 13.02653 | 38756 ft | 491 kts | 128° |
| 2026-05-05 14:41 | 49.52203 | 13.11304 | 38754 ft | 491 kts | 128° |
| 2026-05-05 14:41 | 49.48322 | 13.19946 | 38766 ft | 491 kts | 128° |
| 2026-05-05 14:42 | 49.44463 | 13.28512 | 38763 ft | 491 kts | 128° |
| 2026-05-05 14:42 | 49.40570 | 13.37124 | 38759 ft | 491 kts | 128° |
| 2026-05-05 14:43 | 49.36673 | 13.45720 | 38758 ft | 490 kts | 128° |
| 2026-05-05 14:43 | 49.32769 | 13.54300 | 38758 ft | 492 kts | 128° |
| 2026-05-05 14:44 | 49.28845 | 13.62900 | 38757 ft | 492 kts | 128° |
| 2026-05-05 14:44 | 49.24867 | 13.71420 | 38758 ft | 492 kts | 129° |
| 2026-05-05 14:45 | 49.20815 | 13.79841 | 38755 ft | 491 kts | 129° |
| 2026-05-05 14:45 | 49.16757 | 13.88258 | 38749 ft | 492 kts | 129° |
| 2026-05-05 14:46 | 49.12710 | 13.96671 | 38754 ft | 492 kts | 129° |
| 2026-05-05 14:46 | 49.08660 | 14.05082 | 38755 ft | 492 kts | 129° |
| 2026-05-05 14:47 | 49.04604 | 14.13480 | 38754 ft | 492 kts | 129° |
| 2026-05-05 14:47 | 49.00538 | 14.21870 | 38741 ft | 492 kts | 129° |
| 2026-05-05 14:48 | 48.96467 | 14.30245 | 38753 ft | 492 kts | 129° |
| 2026-05-05 14:48 | 48.92330 | 14.38547 | 38749 ft | 492 kts | 131° |
| 2026-05-05 14:49 | 48.87936 | 14.46489 | 38749 ft | 491 kts | 133° |
| 2026-05-05 14:49 | 48.83495 | 14.54371 | 38746 ft | 491 kts | 133° |
| 2026-05-05 14:50 | 48.79089 | 14.62285 | 38749 ft | 491 kts | 133° |
| 2026-05-05 14:50 | 48.74700 | 14.70222 | 38746 ft | 491 kts | 132° |
| 2026-05-05 14:51 | 48.70307 | 14.78159 | 38743 ft | 492 kts | 132° |
| 2026-05-05 14:51 | 48.65936 | 14.86029 | 38745 ft | 491 kts | 133° |
| 2026-05-05 14:52 | 48.61534 | 14.93925 | 38736 ft | 491 kts | 132° |
| 2026-05-05 14:52 | 48.57128 | 15.01806 | 38745 ft | 490 kts | 132° |
| 2026-05-05 14:53 | 48.52723 | 15.09663 | 38731 ft | 490 kts | 133° |
| 2026-05-05 14:53 | 48.48308 | 15.17514 | 38739 ft | 491 kts | 133° |
| 2026-05-05 14:54 | 48.43880 | 15.25362 | 38748 ft | 491 kts | 133° |
| 2026-05-05 14:54 | 48.39449 | 15.33193 | 38736 ft | 491 kts | 133° |
| 2026-05-05 14:55 | 48.35018 | 15.41004 | 38734 ft | 491 kts | 133° |
| 2026-05-05 14:55 | 48.30576 | 15.48811 | 38735 ft | 491 kts | 133° |
| 2026-05-05 14:56 | 48.26134 | 15.56594 | 38745 ft | 491 kts | 133° |
| 2026-05-05 14:56 | 48.21680 | 15.64376 | 38747 ft | 493 kts | 133° |
| 2026-05-05 14:57 | 48.17198 | 15.72182 | 38756 ft | 496 kts | 133° |
| 2026-05-05 14:57 | 48.12700 | 15.79994 | 38760 ft | 495 kts | 133° |
| 2026-05-05 14:58 | 48.08200 | 15.87789 | 38773 ft | 495 kts | 133° |
| 2026-05-05 14:58 | 48.03696 | 15.95567 | 38778 ft | 495 kts | 134° |
| 2026-05-05 14:59 | 47.99182 | 16.03337 | 38787 ft | 495 kts | 133° |
| 2026-05-05 14:59 | 47.94668 | 16.11087 | 38791 ft | 495 kts | 134° |
| 2026-05-05 15:00 | 47.90909 | 16.17524 | 38802 ft | 496 kts | 134° |
| 2026-05-05 15:00 | 47.85604 | 16.26579 | 38806 ft | 496 kts | 134° |
| 2026-05-05 15:01 | 47.81065 | 16.34305 | 38809 ft | 496 kts | 133° |
| 2026-05-05 15:01 | 47.76506 | 16.42043 | 38814 ft | 499 kts | 134° |
| 2026-05-05 15:02 | 47.71932 | 16.49778 | 38820 ft | 497 kts | 133° |
| 2026-05-05 15:02 | 47.67373 | 16.57474 | 38832 ft | 496 kts | 134° |
| 2026-05-05 15:03 | 47.62803 | 16.65162 | 38844 ft | 498 kts | 135° |
| 2026-05-05 15:03 | 47.58215 | 16.72856 | 38850 ft | 497 kts | 134° |
| 2026-05-05 15:04 | 47.53345 | 16.80052 | 38849 ft | 493 kts | 140° |
| 2026-05-05 15:04 | 47.48379 | 16.86966 | 38862 ft | 494 kts | 141° |
| 2026-05-05 15:05 | 47.40815 | 16.97361 | 38865 ft | 494 kts | 140° |
| 2026-05-05 15:06 | 47.35787 | 17.04265 | 38886 ft | 494 kts | 139° |
| 2026-05-05 15:06 | 47.30761 | 17.11157 | 38893 ft | 494 kts | 140° |
| 2026-05-05 15:07 | 47.25724 | 17.18045 | 38900 ft | 495 kts | 140° |
| 2026-05-05 15:07 | 47.20665 | 17.24940 | 38903 ft | 495 kts | 140° |
| 2026-05-05 15:08 | 47.15615 | 17.31810 | 38907 ft | 494 kts | 139° |
| 2026-05-05 15:08 | 47.10573 | 17.38651 | 38914 ft | 494 kts | 140° |
| 2026-05-05 15:09 | 47.05518 | 17.45487 | 38909 ft | 495 kts | 140° |
| 2026-05-05 15:09 | 47.00451 | 17.52322 | 38914 ft | 495 kts | 139° |
| 2026-05-05 15:10 | 46.95383 | 17.59138 | 38918 ft | 495 kts | 139° |
| 2026-05-05 15:10 | 46.90358 | 17.65884 | 38921 ft | 494 kts | 140° |
| 2026-05-05 15:11 | 46.85286 | 17.72671 | 38919 ft | 495 kts | 140° |
| 2026-05-05 15:11 | 46.80197 | 17.79461 | 38916 ft | 495 kts | 139° |
| 2026-05-05 15:12 | 46.75116 | 17.86225 | 38914 ft | 495 kts | 139° |
| 2026-05-05 15:12 | 46.70032 | 17.92976 | 38917 ft | 494 kts | 139° |
| 2026-05-05 15:13 | 46.64945 | 17.99711 | 38914 ft | 494 kts | 140° |
| 2026-05-05 15:13 | 46.59848 | 18.06440 | 38913 ft | 495 kts | 140° |
| 2026-05-05 15:14 | 46.54748 | 18.13157 | 38925 ft | 494 kts | 139° |
| 2026-05-05 15:14 | 46.49653 | 18.19850 | 38920 ft | 494 kts | 139° |
| 2026-05-05 15:15 | 46.44551 | 18.26533 | 38920 ft | 494 kts | 140° |
| 2026-05-05 15:15 | 46.39501 | 18.33132 | 38921 ft | 494 kts | 140° |
| 2026-05-05 15:16 | 46.36563 | 18.36962 | 38914 ft | 494 kts | 139° |
| 2026-05-05 15:17 | 46.31457 | 18.43606 | 38920 ft | 493 kts | 139° |
| 2026-05-05 15:17 | 46.26350 | 18.50235 | 38921 ft | 494 kts | 140° |
| 2026-05-05 15:18 | 46.21223 | 18.56870 | 38922 ft | 495 kts | 140° |
| 2026-05-05 15:18 | 46.16089 | 18.63498 | 38912 ft | 495 kts | 140° |
| 2026-05-05 15:19 | 46.10950 | 18.70115 | 38918 ft | 495 kts | 140° |
| 2026-05-05 15:19 | 46.06674 | 18.75608 | 38915 ft | 495 kts | 140° |
| 2026-05-05 15:20 | 46.00694 | 18.83271 | 38914 ft | 495 kts | 140° |
| 2026-05-05 15:20 | 45.95538 | 18.89860 | 38919 ft | 496 kts | 140° |
| 2026-05-05 15:21 | 45.90433 | 18.96547 | 38921 ft | 497 kts | 136° |
| 2026-05-05 15:21 | 45.86436 | 19.02582 | 38920 ft | 498 kts | 134° |
| 2026-05-05 15:22 | 45.81745 | 19.09888 | 38923 ft | 498 kts | 134° |
| 2026-05-05 15:22 | 45.77002 | 19.17116 | 38922 ft | 498 kts | 135° |
| 2026-05-05 15:23 | 45.72216 | 19.24273 | 38917 ft | 497 kts | 135° |
| 2026-05-05 15:23 | 45.67414 | 19.31404 | 38922 ft | 498 kts | 135° |
| 2026-05-05 15:24 | 45.62632 | 19.38486 | 38925 ft | 498 kts | 135° |
| 2026-05-05 15:24 | 45.57819 | 19.45603 | 38925 ft | 498 kts | 135° |
| 2026-05-05 15:25 | 45.53001 | 19.52709 | 38930 ft | 498 kts | 135° |
| 2026-05-05 15:25 | 45.48180 | 19.59802 | 38930 ft | 498 kts | 135° |
| 2026-05-05 15:26 | 45.43347 | 19.66893 | 38930 ft | 500 kts | 135° |
| 2026-05-05 15:26 | 45.38498 | 19.73989 | 38932 ft | 500 kts | 135° |
| 2026-05-05 15:27 | 45.33647 | 19.81071 | 38932 ft | 499 kts | 135° |
| 2026-05-05 15:27 | 45.28798 | 19.88130 | 38936 ft | 499 kts | 135° |
| 2026-05-05 15:28 | 45.23947 | 19.95174 | 38936 ft | 499 kts | 135° |
| 2026-05-05 15:28 | 45.19094 | 20.02203 | 38938 ft | 499 kts | 135° |
| 2026-05-05 15:29 | 45.14229 | 20.09230 | 38938 ft | 500 kts | 135° |
| 2026-05-05 15:29 | 45.09348 | 20.16262 | 38936 ft | 500 kts | 135° |
| 2026-05-05 15:30 | 45.04466 | 20.23279 | 38946 ft | 500 kts | 135° |
| 2026-05-05 15:30 | 44.99578 | 20.30284 | 38943 ft | 501 kts | 135° |
| 2026-05-05 15:31 | 44.94686 | 20.37278 | 38939 ft | 500 kts | 135° |
| 2026-05-05 15:31 | 44.89793 | 20.44257 | 38940 ft | 500 kts | 135° |
| 2026-05-05 15:32 | 44.84897 | 20.51220 | 38942 ft | 500 kts | 135° |
| 2026-05-05 15:32 | 44.79990 | 20.58180 | 38950 ft | 500 kts | 135° |
| 2026-05-05 15:33 | 44.75089 | 20.65116 | 38957 ft | 500 kts | 135° |
| 2026-05-05 15:33 | 44.70179 | 20.72047 | 38958 ft | 500 kts | 135° |
| 2026-05-05 15:34 | 44.65262 | 20.78969 | 38955 ft | 500 kts | 135° |
| 2026-05-05 15:34 | 44.60343 | 20.85876 | 38955 ft | 501 kts | 135° |
| 2026-05-05 15:35 | 44.55410 | 20.92786 | 38955 ft | 502 kts | 135° |
| 2026-05-05 15:35 | 44.50460 | 20.99702 | 38955 ft | 502 kts | 135° |
| 2026-05-05 15:36 | 44.45544 | 21.06553 | 38955 ft | 502 kts | 135° |
| 2026-05-05 15:36 | 44.40591 | 21.13439 | 38958 ft | 502 kts | 135° |
| 2026-05-05 15:37 | 44.35630 | 21.20318 | 38955 ft | 502 kts | 135° |
| 2026-05-05 15:37 | 44.30633 | 21.27154 | 38960 ft | 503 kts | 138° |
| 2026-05-05 15:38 | 44.25307 | 21.33479 | 38971 ft | 503 kts | 141° |
| 2026-05-05 15:38 | 44.19873 | 21.39644 | 38963 ft | 504 kts | 141° |
| 2026-05-05 15:39 | 44.14473 | 21.45869 | 38973 ft | 504 kts | 140° |
| 2026-05-05 15:39 | 44.09101 | 21.52141 | 38971 ft | 504 kts | 140° |
| 2026-05-05 15:40 | 44.03730 | 21.58424 | 38979 ft | 505 kts | 140° |
| 2026-05-05 15:40 | 43.98339 | 21.64715 | 38979 ft | 506 kts | 140° |
| 2026-05-05 15:41 | 43.92940 | 21.70994 | 38982 ft | 507 kts | 140° |
| 2026-05-05 15:41 | 43.87536 | 21.77262 | 38982 ft | 506 kts | 140° |
| 2026-05-05 15:42 | 43.82128 | 21.83518 | 38986 ft | 507 kts | 140° |
| 2026-05-05 15:42 | 43.76702 | 21.89781 | 38985 ft | 508 kts | 140° |
| 2026-05-05 15:43 | 43.71270 | 21.96035 | 38985 ft | 508 kts | 140° |
| 2026-05-05 15:43 | 43.65832 | 22.02282 | 38986 ft | 509 kts | 140° |
| 2026-05-05 15:44 | 43.60423 | 22.08479 | 38990 ft | 508 kts | 140° |
| 2026-05-05 15:44 | 43.54975 | 22.14707 | 38985 ft | 509 kts | 141° |
| 2026-05-05 15:45 | 43.49520 | 22.20927 | 38988 ft | 509 kts | 141° |
| 2026-05-05 15:45 | 43.44058 | 22.27139 | 38992 ft | 509 kts | 140° |
| 2026-05-05 15:46 | 43.38588 | 22.33346 | 38988 ft | 510 kts | 141° |
| 2026-05-05 15:46 | 43.33115 | 22.39541 | 38991 ft | 510 kts | 141° |
| 2026-05-05 15:47 | 43.27628 | 22.45739 | 38999 ft | 511 kts | 141° |
| 2026-05-05 15:47 | 43.22138 | 22.51923 | 39002 ft | 511 kts | 141° |
| 2026-05-05 15:48 | 43.16638 | 22.58104 | 39014 ft | 512 kts | 141° |
| 2026-05-05 15:48 | 43.11133 | 22.64275 | 39019 ft | 512 kts | 141° |
| 2026-05-05 15:49 | 43.05624 | 22.70438 | 39015 ft | 512 kts | 141° |
| 2026-05-05 15:49 | 43.00099 | 22.76601 | 39022 ft | 513 kts | 141° |
| 2026-05-05 15:50 | 42.94610 | 22.82833 | 39020 ft | 513 kts | 138° |
| 2026-05-05 15:50 | 42.89415 | 22.89517 | 39027 ft | 513 kts | 135° |
| 2026-05-05 15:51 | 42.84281 | 22.96286 | 39028 ft | 514 kts | 136° |
| 2026-05-05 15:51 | 42.79097 | 23.02990 | 39020 ft | 515 kts | 136° |
| 2026-05-05 15:52 | 42.73863 | 23.09657 | 39022 ft | 515 kts | 137° |
| 2026-05-05 15:52 | 42.68650 | 23.16262 | 39022 ft | 516 kts | 137° |
| 2026-05-05 15:53 | 42.63399 | 23.22900 | 39024 ft | 516 kts | 136° |
| 2026-05-05 15:53 | 42.58145 | 23.29531 | 39023 ft | 515 kts | 136° |
| 2026-05-05 15:54 | 42.52890 | 23.36149 | 39026 ft | 517 kts | 136° |
| 2026-05-05 15:54 | 42.47616 | 23.42775 | 39036 ft | 517 kts | 136° |
| 2026-05-05 15:55 | 42.42337 | 23.49391 | 39048 ft | 517 kts | 136° |
| 2026-05-05 15:55 | 42.37050 | 23.56001 | 39051 ft | 517 kts | 136° |
| 2026-05-05 15:56 | 42.31763 | 23.62595 | 39051 ft | 517 kts | 136° |
| 2026-05-05 15:56 | 42.26459 | 23.69165 | 39052 ft | 517 kts | 137° |
| 2026-05-05 15:57 | 42.21107 | 23.75663 | 39056 ft | 517 kts | 137° |
| 2026-05-05 15:57 | 42.15751 | 23.82140 | 39047 ft | 517 kts | 137° |
| 2026-05-05 15:58 | 42.10403 | 23.88610 | 39037 ft | 517 kts | 137° |
| 2026-05-05 15:58 | 42.05056 | 23.95074 | 39036 ft | 517 kts | 137° |
| 2026-05-05 15:59 | 41.99700 | 24.01536 | 39035 ft | 518 kts | 137° |
| 2026-05-05 15:59 | 41.94333 | 24.08008 | 39040 ft | 519 kts | 137° |
| 2026-05-05 16:00 | 41.88957 | 24.14458 | 39035 ft | 518 kts | 137° |
| 2026-05-05 16:00 | 41.83577 | 24.20899 | 39037 ft | 518 kts | 137° |
| 2026-05-05 16:01 | 41.78195 | 24.27330 | 39032 ft | 518 kts | 137° |
| 2026-05-05 16:01 | 41.72812 | 24.33749 | 39029 ft | 518 kts | 138° |
| 2026-05-05 16:02 | 41.67424 | 24.40159 | 39035 ft | 518 kts | 138° |
| 2026-05-05 16:02 | 41.62053 | 24.46533 | 39032 ft | 515 kts | 138° |
| 2026-05-05 16:03 | 41.56690 | 24.52884 | 39030 ft | 515 kts | 138° |
| 2026-05-05 16:03 | 41.51326 | 24.59220 | 39032 ft | 515 kts | 138° |
| 2026-05-05 16:04 | 41.45956 | 24.65549 | 39029 ft | 516 kts | 138° |
| 2026-05-05 16:04 | 41.40574 | 24.71902 | 39026 ft | 517 kts | 137° |
| 2026-05-05 16:05 | 41.35419 | 24.78559 | 39030 ft | 516 kts | 134° |
| 2026-05-05 16:05 | 41.30351 | 24.85340 | 39031 ft | 516 kts | 134° |
| 2026-05-05 16:06 | 41.25255 | 24.92068 | 39032 ft | 516 kts | 135° |
| 2026-05-05 16:06 | 41.20155 | 24.98711 | 39032 ft | 519 kts | 135° |
| 2026-05-05 16:07 | 41.14968 | 25.05430 | 39040 ft | 522 kts | 135° |
| 2026-05-05 16:07 | 41.09756 | 25.12163 | 39039 ft | 523 kts | 135° |
| 2026-05-05 16:08 | 41.05392 | 25.17794 | 39025 ft | 523 kts | 135° |
| 2026-05-05 16:08 | 41.00173 | 25.24512 | 39027 ft | 523 kts | 135° |
| 2026-05-05 16:09 | 40.94953 | 25.31218 | 39019 ft | 523 kts | 135° |
| 2026-05-05 16:09 | 40.89730 | 25.37912 | 39033 ft | 523 kts | 135° |
| 2026-05-05 16:10 | 40.84508 | 25.44588 | 39034 ft | 522 kts | 135° |
| 2026-05-05 16:10 | 40.79285 | 25.51250 | 39032 ft | 522 kts | 135° |
| 2026-05-05 16:11 | 40.74099 | 25.57851 | 39036 ft | 522 kts | 135° |
| 2026-05-05 16:12 | 40.63641 | 25.71115 | 39041 ft | 522 kts | 135° |
| 2026-05-05 16:13 | 40.50661 | 25.87752 | 39042 ft | 520 kts | 128° |
| 2026-05-05 16:13 | 40.46491 | 25.95472 | 39050 ft | 518 kts | 121° |
| 2026-05-05 16:14 | 40.38776 | 26.11432 | 39042 ft | 518 kts | 120° |
| 2026-05-05 16:15 | 40.31036 | 26.27362 | 39049 ft | 518 kts | 121° |
| 2026-05-05 16:16 | 40.23260 | 26.43216 | 39047 ft | 517 kts | 121° |
| 2026-05-05 16:17 | 40.17421 | 26.55075 | 39048 ft | 517 kts | 121° |
| 2026-05-05 16:18 | 40.11563 | 26.66927 | 39047 ft | 518 kts | 121° |
| 2026-05-05 16:19 | 40.05682 | 26.78782 | 39053 ft | 518 kts | 121° |
| 2026-05-05 16:19 | 39.99787 | 26.90617 | 39057 ft | 519 kts | 121° |
| 2026-05-05 16:20 | 39.91884 | 27.06416 | 39053 ft | 521 kts | 121° |
| 2026-05-05 16:22 | 39.81984 | 27.26097 | 39069 ft | 521 kts | 122° |
| 2026-05-05 16:23 | 39.74013 | 27.41850 | 39064 ft | 521 kts | 122° |
| 2026-05-05 16:23 | 39.68026 | 27.53625 | 39073 ft | 520 kts | 122° |
| 2026-05-05 16:24 | 39.64039 | 27.61443 | 39071 ft | 519 kts | 122° |
| 2026-05-05 16:25 | 39.58056 | 27.73141 | 39074 ft | 519 kts | 122° |
| 2026-05-05 16:25 | 39.52062 | 27.84819 | 39083 ft | 519 kts | 122° |
| 2026-05-05 16:26 | 39.48058 | 27.92607 | 39410 ft | 519 kts | 123° |
| 2026-05-05 16:26 | 39.44053 | 28.00365 | 39734 ft | 518 kts | 123° |
| 2026-05-05 16:27 | 39.42048 | 28.04241 | 39880 ft | 518 kts | 123° |
| 2026-05-05 16:27 | 39.40042 | 28.08116 | 40057 ft | 518 kts | 123° |
| 2026-05-05 16:27 | 39.38041 | 28.11977 | 40222 ft | 517 kts | 123° |
| 2026-05-05 16:27 | 39.36037 | 28.15840 | 40392 ft | 517 kts | 123° |
| 2026-05-05 16:28 | 39.34034 | 28.19695 | 40520 ft | 517 kts | 123° |
| 2026-05-05 16:28 | 39.32031 | 28.23548 | 40640 ft | 517 kts | 123° |
| 2026-05-05 16:28 | 39.30026 | 28.27398 | 40772 ft | 517 kts | 123° |
| 2026-05-05 16:28 | 39.28021 | 28.31254 | 40878 ft | 517 kts | 123° |
| 2026-05-05 16:29 | 39.26014 | 28.35103 | 40995 ft | 517 kts | 123° |
| 2026-05-05 16:29 | 39.24003 | 28.38951 | 41062 ft | 518 kts | 123° |
| 2026-05-05 16:29 | 39.19976 | 28.46642 | 41067 ft | 517 kts | 123° |
| 2026-05-05 16:30 | 39.15953 | 28.54309 | 41067 ft | 516 kts | 123° |
| 2026-05-05 16:30 | 39.11950 | 28.61922 | 41068 ft | 517 kts | 123° |
| 2026-05-05 16:31 | 39.07917 | 28.69573 | 41067 ft | 516 kts | 123° |
| 2026-05-05 16:31 | 39.03883 | 28.77209 | 41063 ft | 516 kts | 124° |
| 2026-05-05 16:32 | 38.99849 | 28.84827 | 41059 ft | 516 kts | 124° |
| 2026-05-05 16:32 | 38.95804 | 28.92449 | 41060 ft | 516 kts | 124° |
| 2026-05-05 16:33 | 38.91759 | 29.00051 | 41062 ft | 516 kts | 124° |
| 2026-05-05 16:33 | 38.90784 | 29.01881 | 41058 ft | 516 kts | 124° |
| 2026-05-05 16:34 | 38.86728 | 29.09482 | 41053 ft | 516 kts | 124° |
| 2026-05-05 16:34 | 38.82664 | 29.17079 | 41064 ft | 516 kts | 124° |
| 2026-05-05 16:35 | 38.78597 | 29.24666 | 41067 ft | 516 kts | 124° |
| 2026-05-05 16:35 | 38.74523 | 29.32247 | 41069 ft | 516 kts | 124° |
| 2026-05-05 16:36 | 38.70449 | 29.39811 | 41074 ft | 516 kts | 124° |
| 2026-05-05 16:36 | 38.66360 | 29.47386 | 41054 ft | 517 kts | 124° |
| 2026-05-05 16:37 | 38.62193 | 29.54873 | 41058 ft | 517 kts | 126° |
| 2026-05-05 16:37 | 38.57938 | 29.62288 | 41049 ft | 518 kts | 126° |
| 2026-05-05 16:38 | 38.53684 | 29.69705 | 41055 ft | 518 kts | 126° |
| 2026-05-05 16:38 | 38.49435 | 29.77139 | 41056 ft | 518 kts | 126° |
| 2026-05-05 16:39 | 38.45194 | 29.84558 | 41056 ft | 518 kts | 126° |
| 2026-05-05 16:39 | 38.40946 | 29.91975 | 41054 ft | 518 kts | 126° |
| 2026-05-05 16:40 | 38.36693 | 29.99383 | 41054 ft | 518 kts | 126° |
| 2026-05-05 16:40 | 38.32432 | 30.06786 | 41055 ft | 518 kts | 126° |
| 2026-05-05 16:41 | 38.28166 | 30.14184 | 41051 ft | 519 kts | 126° |
| 2026-05-05 16:41 | 38.23899 | 30.21586 | 41054 ft | 519 kts | 126° |
| 2026-05-05 16:42 | 38.19626 | 30.28981 | 41046 ft | 519 kts | 126° |
| 2026-05-05 16:42 | 38.15340 | 30.36358 | 41053 ft | 519 kts | 126° |
| 2026-05-05 16:43 | 38.11049 | 30.43729 | 41054 ft | 519 kts | 127° |
| 2026-05-05 16:43 | 38.06759 | 30.51088 | 41053 ft | 519 kts | 127° |
| 2026-05-05 16:44 | 38.02461 | 30.58447 | 41042 ft | 518 kts | 127° |
| 2026-05-05 16:44 | 37.98165 | 30.65787 | 41040 ft | 519 kts | 127° |
| 2026-05-05 16:45 | 37.93869 | 30.73132 | 41043 ft | 519 kts | 127° |
| 2026-05-05 16:45 | 37.89600 | 30.80419 | 41034 ft | 519 kts | 127° |
| 2026-05-05 16:46 | 37.85287 | 30.87762 | 41036 ft | 520 kts | 127° |
| 2026-05-05 16:46 | 37.80965 | 30.95105 | 41035 ft | 520 kts | 127° |
| 2026-05-05 16:47 | 37.76643 | 31.02432 | 41033 ft | 520 kts | 127° |
| 2026-05-05 16:47 | 37.72316 | 31.09749 | 41017 ft | 520 kts | 127° |
| 2026-05-05 16:48 | 37.67983 | 31.17062 | 41021 ft | 520 kts | 127° |
| 2026-05-05 16:48 | 37.63647 | 31.24363 | 41021 ft | 520 kts | 127° |
| 2026-05-05 16:49 | 37.59309 | 31.31653 | 41020 ft | 519 kts | 127° |
| 2026-05-05 16:49 | 37.54966 | 31.38933 | 41016 ft | 520 kts | 127° |
| 2026-05-05 16:50 | 37.50617 | 31.46208 | 41005 ft | 520 kts | 127° |
| 2026-05-05 16:50 | 37.46259 | 31.53483 | 41022 ft | 521 kts | 128° |
| 2026-05-05 16:51 | 37.41895 | 31.60751 | 41011 ft | 520 kts | 128° |
| 2026-05-05 16:51 | 37.37532 | 31.68004 | 41019 ft | 520 kts | 128° |
| 2026-05-05 16:52 | 37.33187 | 31.75207 | 41017 ft | 520 kts | 128° |
| 2026-05-05 16:52 | 37.28808 | 31.82435 | 41018 ft | 520 kts | 128° |
| 2026-05-05 16:53 | 37.24422 | 31.89659 | 41019 ft | 520 kts | 128° |
| 2026-05-05 16:53 | 37.20028 | 31.96883 | 41023 ft | 520 kts | 128° |
| 2026-05-05 16:54 | 37.15632 | 32.04096 | 41025 ft | 520 kts | 128° |
| 2026-05-05 16:54 | 37.11977 | 32.10082 | 41026 ft | 520 kts | 128° |
| 2026-05-05 16:55 | 37.07577 | 32.17274 | 41023 ft | 521 kts | 128° |
| 2026-05-05 16:55 | 37.03159 | 32.24479 | 41027 ft | 521 kts | 129° |
| 2026-05-05 16:56 | 36.98743 | 32.31666 | 41025 ft | 521 kts | 129° |
| 2026-05-05 16:56 | 36.94318 | 32.38852 | 41024 ft | 521 kts | 129° |
| 2026-05-05 16:57 | 36.89889 | 32.46029 | 41024 ft | 521 kts | 129° |
| 2026-05-05 16:57 | 36.85459 | 32.53197 | 41020 ft | 522 kts | 129° |
| 2026-05-05 16:58 | 36.81026 | 32.60359 | 41020 ft | 521 kts | 129° |
| 2026-05-05 16:58 | 36.76586 | 32.67516 | 41014 ft | 521 kts | 129° |
| 2026-05-05 16:59 | 36.72145 | 32.74658 | 41011 ft | 521 kts | 129° |
| 2026-05-05 16:59 | 36.67700 | 32.81793 | 41007 ft | 522 kts | 129° |
| 2026-05-05 17:00 | 36.63243 | 32.88932 | 41006 ft | 522 kts | 129° |
| 2026-05-05 17:00 | 36.58782 | 32.96065 | 40996 ft | 522 kts | 130° |
| 2026-05-05 17:01 | 36.54319 | 33.03182 | 41000 ft | 521 kts | 130° |
| 2026-05-05 17:01 | 36.49857 | 33.10283 | 40986 ft | 521 kts | 130° |
| 2026-05-05 17:02 | 36.45388 | 33.17381 | 40978 ft | 521 kts | 130° |
| 2026-05-05 17:02 | 36.40915 | 33.24470 | 40981 ft | 522 kts | 130° |
| 2026-05-05 17:03 | 36.36439 | 33.31553 | 40977 ft | 522 kts | 130° |
| 2026-05-05 17:03 | 36.31948 | 33.38628 | 40976 ft | 522 kts | 130° |
| 2026-05-05 17:04 | 36.27455 | 33.45689 | 40972 ft | 522 kts | 130° |
| 2026-05-05 17:04 | 36.22949 | 33.52755 | 40968 ft | 523 kts | 130° |
| 2026-05-05 17:05 | 36.18442 | 33.59810 | 40967 ft | 523 kts | 130° |
| 2026-05-05 17:05 | 36.13928 | 33.66861 | 40964 ft | 523 kts | 130° |
| 2026-05-05 17:06 | 36.09411 | 33.73906 | 40976 ft | 522 kts | 131° |
| 2026-05-05 17:06 | 36.04890 | 33.80941 | 40975 ft | 522 kts | 131° |
| 2026-05-05 17:07 | 36.00401 | 33.87911 | 40977 ft | 522 kts | 131° |
| 2026-05-05 17:07 | 35.95878 | 33.94919 | 40962 ft | 522 kts | 131° |
| 2026-05-05 17:08 | 35.91521 | 34.02095 | 40978 ft | 524 kts | 123° |
| 2026-05-05 17:08 | 35.88024 | 34.09993 | 40979 ft | 525 kts | 119° |
| 2026-05-05 17:09 | 35.84696 | 34.18017 | 40966 ft | 526 kts | 119° |
| 2026-05-05 17:09 | 35.81379 | 34.26066 | 40981 ft | 528 kts | 119° |
| 2026-05-05 17:10 | 35.78030 | 34.34122 | 40988 ft | 529 kts | 119° |
| 2026-05-05 17:10 | 35.74657 | 34.42188 | 40986 ft | 529 kts | 119° |
| 2026-05-05 17:11 | 35.71280 | 34.50234 | 40986 ft | 529 kts | 120° |
| 2026-05-05 17:11 | 35.67892 | 34.58287 | 40990 ft | 530 kts | 120° |
| 2026-05-05 17:12 | 35.64497 | 34.66341 | 40993 ft | 530 kts | 120° |
| 2026-05-05 17:12 | 35.61095 | 34.74390 | 40990 ft | 530 kts | 120° |
| 2026-05-05 17:13 | 35.57685 | 34.82440 | 40996 ft | 531 kts | 120° |
| 2026-05-05 17:13 | 35.54268 | 34.90488 | 40996 ft | 532 kts | 120° |
| 2026-05-05 17:14 | 35.50842 | 34.98535 | 40999 ft | 532 kts | 120° |
| 2026-05-05 17:14 | 35.47437 | 35.06516 | 40998 ft | 532 kts | 121° |
| 2026-05-05 17:15 | 35.43993 | 35.14565 | 40991 ft | 533 kts | 121° |
| 2026-05-05 17:15 | 35.40549 | 35.22598 | 40992 ft | 532 kts | 121° |
| 2026-05-05 17:16 | 35.37098 | 35.30630 | 40990 ft | 532 kts | 121° |
| 2026-05-05 17:16 | 35.33641 | 35.38653 | 40991 ft | 532 kts | 121° |
| 2026-05-05 17:17 | 35.30180 | 35.46666 | 40993 ft | 532 kts | 121° |
| 2026-05-05 17:17 | 35.26715 | 35.54674 | 40994 ft | 532 kts | 121° |
| 2026-05-05 17:18 | 35.23244 | 35.62674 | 40998 ft | 532 kts | 122° |
| 2026-05-05 17:18 | 35.20672 | 35.71183 | 41001 ft | 539 kts | 102° |
| 2026-05-05 17:19 | 35.20269 | 35.75740 | 40982 ft | 541 kts | 91° |
| 2026-05-05 17:19 | 35.20517 | 35.80334 | 41004 ft | 542 kts | 83° |
| 2026-05-05 17:19 | 35.21087 | 35.89528 | 41006 ft | 543 kts | 95° |
| 2026-05-05 17:20 | 35.20562 | 35.94074 | 41004 ft | 538 kts | 107° |
| 2026-05-05 17:20 | 35.19382 | 35.98384 | 41005 ft | 533 kts | 118° |
| 2026-05-05 17:20 | 35.17584 | 36.02305 | 41004 ft | 525 kts | 130° |
| 2026-05-05 17:20 | 35.15339 | 36.05798 | 41004 ft | 521 kts | 135° |
| 2026-05-05 17:21 | 35.10443 | 36.12313 | 41007 ft | 520 kts | 139° |
| 2026-05-05 17:22 | 35.02917 | 36.21859 | 41011 ft | 521 kts | 139° |
| 2026-05-05 17:22 | 34.97938 | 36.28277 | 41002 ft | 521 kts | 139° |
| 2026-05-05 17:23 | 34.92979 | 36.34713 | 41006 ft | 521 kts | 139° |
| 2026-05-05 17:23 | 34.88024 | 36.41142 | 41000 ft | 521 kts | 139° |
| 2026-05-05 17:24 | 34.83055 | 36.47571 | 41007 ft | 522 kts | 139° |
| 2026-05-05 17:24 | 34.78106 | 36.53959 | 41004 ft | 523 kts | 139° |
| 2026-05-05 17:25 | 34.73067 | 36.60451 | 41005 ft | 524 kts | 139° |
| 2026-05-05 17:25 | 34.68095 | 36.66850 | 41001 ft | 525 kts | 139° |
| 2026-05-05 17:26 | 34.63083 | 36.73288 | 41013 ft | 525 kts | 139° |
| 2026-05-05 17:26 | 34.58059 | 36.79721 | 41016 ft | 525 kts | 139° |
| 2026-05-05 17:27 | 34.53034 | 36.86145 | 40940 ft | 523 kts | 139° |
| 2026-05-05 17:27 | 34.50543 | 36.89329 | 40437 ft | 520 kts | 139° |
| 2026-05-05 17:27 | 34.48053 | 36.92507 | 39803 ft | 520 kts | 140° |
| 2026-05-05 17:27 | 34.45558 | 36.95687 | 39152 ft | 521 kts | 140° |
| 2026-05-05 17:28 | 34.43061 | 36.98864 | 38493 ft | 521 kts | 140° |
| 2026-05-05 17:28 | 34.40553 | 37.02052 | 37583 ft | 524 kts | 140° |
| 2026-05-05 17:28 | 34.38028 | 37.05258 | 36732 ft | 527 kts | 140° |
| 2026-05-05 17:28 | 34.35496 | 37.08471 | 36000 ft | 528 kts | 140° |
| 2026-05-05 17:29 | 34.32967 | 37.11681 | 35386 ft | 528 kts | 140° |
| 2026-05-05 17:29 | 34.30425 | 37.14902 | 35069 ft | 531 kts | 140° |
| 2026-05-05 17:29 | 34.27867 | 37.18140 | 35007 ft | 533 kts | 140° |
| 2026-05-05 17:30 | 34.22666 | 37.24495 | 35002 ft | 527 kts | 146° |
| 2026-05-05 17:30 | 34.16638 | 37.29239 | 34961 ft | 512 kts | 160° |
| 2026-05-05 17:31 | 34.10308 | 37.33125 | 35006 ft | 509 kts | 162° |
| 2026-05-05 17:31 | 34.03952 | 37.36855 | 35004 ft | 508 kts | 162° |
| 2026-05-05 17:32 | 33.97596 | 37.40593 | 35002 ft | 508 kts | 162° |
| 2026-05-05 17:32 | 33.91247 | 37.44355 | 35002 ft | 509 kts | 162° |
| 2026-05-05 17:33 | 33.84901 | 37.48124 | 34992 ft | 508 kts | 162° |
| 2026-05-05 17:33 | 33.78570 | 37.51881 | 35001 ft | 507 kts | 162° |
| 2026-05-05 17:34 | 33.72287 | 37.55599 | 34991 ft | 507 kts | 162° |
| 2026-05-05 17:34 | 33.65955 | 37.59338 | 34992 ft | 507 kts | 162° |
| 2026-05-05 17:35 | 33.59628 | 37.63070 | 34988 ft | 507 kts | 162° |
| 2026-05-05 17:35 | 33.53306 | 37.66790 | 34991 ft | 506 kts | 163° |
| 2026-05-05 17:36 | 33.46970 | 37.70439 | 34995 ft | 505 kts | 163° |
| 2026-05-05 17:36 | 33.40629 | 37.74061 | 34994 ft | 504 kts | 163° |
| 2026-05-05 17:37 | 33.34295 | 37.77662 | 34998 ft | 503 kts | 164° |
| 2026-05-05 17:37 | 33.27976 | 37.81249 | 35004 ft | 502 kts | 164° |
| 2026-05-05 17:38 | 33.21666 | 37.84830 | 34991 ft | 502 kts | 164° |
| 2026-05-05 17:38 | 33.15352 | 37.88410 | 34991 ft | 502 kts | 164° |
| 2026-05-05 17:39 | 33.09038 | 37.91987 | 34996 ft | 502 kts | 165° |
| 2026-05-05 17:39 | 33.02735 | 37.95552 | 34963 ft | 501 kts | 165° |
| 2026-05-05 17:40 | 32.96456 | 37.99099 | 35006 ft | 498 kts | 165° |
| 2026-05-05 17:40 | 32.90214 | 38.02684 | 35004 ft | 499 kts | 164° |
| 2026-05-05 17:41 | 32.84006 | 38.06390 | 34975 ft | 499 kts | 163° |
| 2026-05-05 17:41 | 32.78853 | 38.09486 | 35007 ft | 499 kts | 163° |
| 2026-05-05 17:42 | 32.72646 | 38.13187 | 35004 ft | 499 kts | 164° |
| 2026-05-05 17:42 | 32.66437 | 38.16868 | 35010 ft | 499 kts | 164° |
| 2026-05-05 17:43 | 32.60226 | 38.20544 | 34991 ft | 499 kts | 164° |
| 2026-05-05 17:43 | 32.54009 | 38.24216 | 35002 ft | 500 kts | 164° |
| 2026-05-05 17:44 | 32.47774 | 38.27893 | 35004 ft | 501 kts | 164° |
| 2026-05-05 17:44 | 32.41539 | 38.31567 | 35001 ft | 501 kts | 164° |
| 2026-05-05 17:45 | 32.35301 | 38.35238 | 35001 ft | 501 kts | 164° |
| 2026-05-05 17:45 | 32.29066 | 38.38900 | 34977 ft | 500 kts | 164° |
| 2026-05-05 17:46 | 32.22836 | 38.42554 | 35002 ft | 499 kts | 164° |
| 2026-05-05 17:46 | 32.16615 | 38.46197 | 35005 ft | 499 kts | 164° |
| 2026-05-05 17:47 | 32.10389 | 38.49836 | 35009 ft | 499 kts | 164° |
| 2026-05-05 17:47 | 32.04206 | 38.53445 | 35006 ft | 499 kts | 164° |
| 2026-05-05 17:48 | 31.97988 | 38.57070 | 34999 ft | 498 kts | 164° |
| 2026-05-05 17:48 | 31.91782 | 38.60682 | 34999 ft | 497 kts | 164° |
| 2026-05-05 17:49 | 31.85577 | 38.64295 | 35003 ft | 497 kts | 164° |
| 2026-05-05 17:49 | 31.79376 | 38.67896 | 34989 ft | 496 kts | 164° |
| 2026-05-05 17:50 | 31.73198 | 38.71479 | 34993 ft | 495 kts | 164° |
| 2026-05-05 17:50 | 31.67104 | 38.75372 | 34992 ft | 502 kts | 160° |
| 2026-05-05 17:51 | 31.61121 | 38.79617 | 35007 ft | 503 kts | 159° |
| 2026-05-05 17:51 | 31.55156 | 38.83916 | 35009 ft | 503 kts | 159° |
| 2026-05-05 17:52 | 31.49188 | 38.88212 | 35010 ft | 503 kts | 159° |
| 2026-05-05 17:52 | 31.43219 | 38.92488 | 35006 ft | 503 kts | 159° |
| 2026-05-05 17:53 | 31.37253 | 38.96752 | 35011 ft | 502 kts | 159° |
| 2026-05-05 17:53 | 31.31284 | 39.01009 | 35012 ft | 502 kts | 159° |
| 2026-05-05 17:54 | 31.25320 | 39.05257 | 35015 ft | 502 kts | 159° |
| 2026-05-05 17:54 | 31.19352 | 39.09501 | 35019 ft | 502 kts | 159° |
| 2026-05-05 17:55 | 31.13389 | 39.13736 | 35009 ft | 501 kts | 158° |
| 2026-05-05 17:55 | 31.07446 | 39.17953 | 35024 ft | 499 kts | 158° |
| 2026-05-05 17:56 | 31.01521 | 39.22154 | 35014 ft | 498 kts | 158° |
| 2026-05-05 17:56 | 30.95630 | 39.26318 | 35030 ft | 498 kts | 158° |
| 2026-05-05 17:57 | 30.89661 | 39.30528 | 35023 ft | 498 kts | 158° |
| 2026-05-05 17:57 | 30.83740 | 39.34703 | 35028 ft | 497 kts | 158° |
| 2026-05-05 17:58 | 30.77873 | 39.38835 | 35028 ft | 495 kts | 158° |
| 2026-05-05 17:58 | 30.71980 | 39.42979 | 35033 ft | 495 kts | 158° |
| 2026-05-05 17:59 | 30.66085 | 39.47116 | 35039 ft | 495 kts | 158° |
| 2026-05-05 17:59 | 30.60191 | 39.51246 | 34998 ft | 495 kts | 158° |
| 2026-05-05 18:00 | 30.54291 | 39.55376 | 35041 ft | 495 kts | 158° |
| 2026-05-05 18:00 | 30.48390 | 39.59503 | 35046 ft | 495 kts | 159° |
| 2026-05-05 18:01 | 30.42585 | 39.63894 | 35048 ft | 508 kts | 150° |
| 2026-05-05 18:01 | 30.39989 | 39.66737 | 35045 ft | 521 kts | 141° |
| 2026-05-05 18:01 | 30.37660 | 39.69980 | 35049 ft | 526 kts | 137° |
| 2026-05-05 18:02 | 30.33229 | 39.76772 | 35045 ft | 529 kts | 135° |
| 2026-05-05 18:02 | 30.28885 | 39.83651 | 35042 ft | 530 kts | 135° |
| 2026-05-05 18:03 | 30.24506 | 39.90518 | 35041 ft | 530 kts | 135° |
| 2026-05-05 18:03 | 30.20131 | 39.97310 | 35045 ft | 530 kts | 135° |
| 2026-05-05 18:04 | 30.15715 | 40.04130 | 35028 ft | 530 kts | 136° |
| 2026-05-05 18:04 | 30.11297 | 40.10940 | 35042 ft | 530 kts | 136° |
| 2026-05-05 18:05 | 30.06876 | 40.17746 | 35041 ft | 530 kts | 136° |
| 2026-05-05 18:05 | 30.02451 | 40.24550 | 35043 ft | 530 kts | 136° |
| 2026-05-05 18:06 | 29.98027 | 40.31343 | 35036 ft | 530 kts | 136° |
| 2026-05-05 18:06 | 29.93596 | 40.38138 | 35039 ft | 529 kts | 136° |
| 2026-05-05 18:07 | 29.89165 | 40.44919 | 35037 ft | 529 kts | 136° |
| 2026-05-05 18:07 | 29.84734 | 40.51690 | 35031 ft | 530 kts | 136° |
| 2026-05-05 18:08 | 29.80292 | 40.58466 | 35034 ft | 530 kts | 136° |
| 2026-05-05 18:08 | 29.75972 | 40.65386 | 35029 ft | 536 kts | 131° |
| 2026-05-05 18:09 | 29.71984 | 40.72652 | 35013 ft | 537 kts | 130° |
| 2026-05-05 18:09 | 29.68055 | 40.79969 | 35031 ft | 537 kts | 130° |
| 2026-05-05 18:10 | 29.64127 | 40.87281 | 35017 ft | 537 kts | 130° |
| 2026-05-05 18:10 | 29.60189 | 40.94579 | 35016 ft | 537 kts | 130° |
| 2026-05-05 18:11 | 29.56244 | 41.01866 | 35018 ft | 537 kts | 130° |
| 2026-05-05 18:11 | 29.52293 | 41.09147 | 35015 ft | 537 kts | 131° |
| 2026-05-05 18:12 | 29.48337 | 41.16426 | 35012 ft | 537 kts | 131° |
| 2026-05-05 18:12 | 29.44409 | 41.23640 | 35013 ft | 537 kts | 131° |
| 2026-05-05 18:13 | 29.40426 | 41.30943 | 35006 ft | 536 kts | 131° |
| 2026-05-05 18:13 | 29.36462 | 41.38197 | 35001 ft | 537 kts | 131° |
| 2026-05-05 18:14 | 29.32496 | 41.45452 | 34999 ft | 537 kts | 131° |
| 2026-05-05 18:14 | 29.28551 | 41.52646 | 34993 ft | 537 kts | 131° |
| 2026-05-05 18:15 | 29.24574 | 41.59887 | 34989 ft | 537 kts | 131° |
| 2026-05-05 18:15 | 29.20590 | 41.67130 | 34990 ft | 537 kts | 131° |
| 2026-05-05 18:16 | 29.16606 | 41.74364 | 34992 ft | 537 kts | 131° |
| 2026-05-05 18:16 | 29.12617 | 41.81593 | 34979 ft | 537 kts | 131° |
| 2026-05-05 18:17 | 29.08628 | 41.88810 | 34982 ft | 537 kts | 131° |
| 2026-05-05 18:17 | 29.04636 | 41.96023 | 34980 ft | 537 kts | 131° |
| 2026-05-05 18:18 | 29.00643 | 42.03223 | 34971 ft | 536 kts | 131° |
| 2026-05-05 18:18 | 28.96653 | 42.10394 | 34979 ft | 534 kts | 131° |
| 2026-05-05 18:19 | 28.92662 | 42.17553 | 34977 ft | 534 kts | 131° |
| 2026-05-05 18:19 | 28.88665 | 42.24714 | 34976 ft | 536 kts | 131° |
| 2026-05-05 18:20 | 28.84658 | 42.31881 | 34974 ft | 536 kts | 131° |
| 2026-05-05 18:20 | 28.80645 | 42.39051 | 34971 ft | 536 kts | 131° |
| 2026-05-05 18:21 | 28.76625 | 42.46217 | 34970 ft | 538 kts | 131° |
| 2026-05-05 18:21 | 28.72586 | 42.53405 | 34966 ft | 539 kts | 131° |
| 2026-05-05 18:22 | 28.68542 | 42.60593 | 34964 ft | 539 kts | 131° |
| 2026-05-05 18:22 | 28.64493 | 42.67778 | 34965 ft | 539 kts | 131° |
| 2026-05-05 18:23 | 28.60676 | 42.75121 | 34960 ft | 546 kts | 127° |
| 2026-05-05 18:23 | 28.57095 | 42.82745 | 34961 ft | 546 kts | 127° |
| 2026-05-05 18:24 | 28.53495 | 42.90352 | 34954 ft | 546 kts | 127° |
| 2026-05-05 18:24 | 28.49843 | 42.97906 | 34955 ft | 545 kts | 128° |
| 2026-05-05 18:25 | 28.46161 | 43.05441 | 34946 ft | 545 kts | 128° |
| 2026-05-05 18:25 | 28.42477 | 43.12961 | 34952 ft | 545 kts | 128° |
| 2026-05-05 18:26 | 28.38790 | 43.20480 | 34944 ft | 545 kts | 128° |
| 2026-05-05 18:26 | 28.35098 | 43.27999 | 34941 ft | 545 kts | 128° |
| 2026-05-05 18:27 | 28.31403 | 43.35512 | 34936 ft | 545 kts | 128° |
| 2026-05-05 18:27 | 28.27706 | 43.43015 | 34934 ft | 545 kts | 128° |
| 2026-05-05 18:28 | 28.22148 | 43.54268 | 34927 ft | 545 kts | 128° |
| 2026-05-05 18:28 | 28.18436 | 43.61766 | 34924 ft | 545 kts | 128° |
| 2026-05-05 18:29 | 28.15349 | 43.67995 | 34893 ft | 545 kts | 128° |
| 2026-05-05 18:29 | 28.11629 | 43.75485 | 34914 ft | 546 kts | 128° |
| 2026-05-05 18:30 | 28.07905 | 43.82972 | 34915 ft | 545 kts | 128° |
| 2026-05-05 18:30 | 28.04174 | 43.90456 | 34919 ft | 546 kts | 128° |
| 2026-05-05 18:31 | 28.00443 | 43.97928 | 34917 ft | 546 kts | 128° |
| 2026-05-05 18:31 | 27.96703 | 44.05406 | 34909 ft | 546 kts | 128° |
| 2026-05-05 18:32 | 27.92960 | 44.12877 | 34912 ft | 546 kts | 128° |
| 2026-05-05 18:32 | 27.89216 | 44.20337 | 34908 ft | 546 kts | 128° |
| 2026-05-05 18:33 | 27.85468 | 44.27791 | 34910 ft | 545 kts | 128° |
| 2026-05-05 18:33 | 27.81720 | 44.35233 | 34906 ft | 545 kts | 128° |
| 2026-05-05 18:34 | 27.77969 | 44.42666 | 34877 ft | 544 kts | 128° |
| 2026-05-05 18:34 | 27.74218 | 44.50084 | 34895 ft | 544 kts | 128° |
| 2026-05-05 18:35 | 27.70468 | 44.57491 | 34889 ft | 543 kts | 128° |
| 2026-05-05 18:35 | 27.68595 | 44.61188 | 34776 ft | 540 kts | 128° |
| 2026-05-05 18:35 | 27.66764 | 44.64804 | 34155 ft | 537 kts | 128° |
| 2026-05-05 18:36 | 27.64903 | 44.68466 | 33414 ft | 539 kts | 128° |
| 2026-05-05 18:36 | 27.63032 | 44.72138 | 32984 ft | 543 kts | 128° |
| 2026-05-05 18:36 | 27.59253 | 44.79547 | 32880 ft | 545 kts | 127° |
| 2026-05-05 18:37 | 27.55477 | 44.86959 | 32882 ft | 545 kts | 128° |
| 2026-05-05 18:37 | 27.51705 | 44.94349 | 32883 ft | 544 kts | 128° |
| 2026-05-05 18:38 | 27.47922 | 45.01744 | 32869 ft | 545 kts | 128° |
| 2026-05-05 18:38 | 27.44111 | 45.09180 | 32849 ft | 545 kts | 128° |
| 2026-05-05 18:39 | 27.40343 | 45.16519 | 32866 ft | 545 kts | 128° |
| 2026-05-05 18:39 | 27.36547 | 45.23898 | 32862 ft | 546 kts | 128° |
| 2026-05-05 18:40 | 27.32711 | 45.31345 | 32862 ft | 546 kts | 128° |
| 2026-05-05 18:40 | 27.28904 | 45.38725 | 32847 ft | 545 kts | 128° |
| 2026-05-05 18:41 | 27.25119 | 45.46048 | 32846 ft | 545 kts | 128° |
| 2026-05-05 18:41 | 27.21303 | 45.53417 | 32862 ft | 546 kts | 128° |
| 2026-05-05 18:42 | 27.17484 | 45.60779 | 32860 ft | 545 kts | 128° |
| 2026-05-05 18:42 | 27.13666 | 45.68129 | 32858 ft | 545 kts | 128° |
| 2026-05-05 18:43 | 27.09843 | 45.75475 | 32855 ft | 545 kts | 128° |
| 2026-05-05 18:43 | 27.06017 | 45.82814 | 32851 ft | 545 kts | 128° |
| 2026-05-05 18:44 | 27.02182 | 45.90156 | 32854 ft | 546 kts | 128° |
| 2026-05-05 18:44 | 26.98341 | 45.97502 | 32860 ft | 546 kts | 128° |
| 2026-05-05 18:45 | 26.94519 | 46.04796 | 32836 ft | 546 kts | 127° |
| 2026-05-05 18:45 | 26.90638 | 46.12189 | 32850 ft | 548 kts | 127° |
| 2026-05-05 18:46 | 26.86771 | 46.19547 | 32856 ft | 548 kts | 127° |
| 2026-05-05 18:46 | 26.82905 | 46.26890 | 32828 ft | 547 kts | 127° |
| 2026-05-05 18:47 | 26.79055 | 46.34189 | 32847 ft | 549 kts | 127° |
| 2026-05-05 18:47 | 26.75145 | 46.41587 | 32846 ft | 549 kts | 127° |
| 2026-05-05 18:48 | 26.71284 | 46.48887 | 32847 ft | 549 kts | 127° |
| 2026-05-05 18:48 | 26.67396 | 46.56224 | 32848 ft | 549 kts | 127° |
| 2026-05-05 18:49 | 26.63498 | 46.63565 | 32848 ft | 549 kts | 127° |
| 2026-05-05 18:49 | 26.59594 | 46.70905 | 32844 ft | 549 kts | 127° |
| 2026-05-05 18:50 | 26.55690 | 46.78237 | 32841 ft | 549 kts | 127° |
| 2026-05-05 18:50 | 26.51790 | 46.85549 | 32844 ft | 547 kts | 127° |
| 2026-05-05 18:51 | 26.47895 | 46.92836 | 32844 ft | 547 kts | 127° |
| 2026-05-05 18:51 | 26.43988 | 47.00133 | 32822 ft | 547 kts | 127° |
| 2026-05-05 18:52 | 26.40084 | 47.07414 | 32847 ft | 546 kts | 127° |
| 2026-05-05 18:52 | 26.36192 | 47.14665 | 32845 ft | 545 kts | 127° |
| 2026-05-05 18:53 | 26.32290 | 47.21917 | 32845 ft | 545 kts | 127° |
| 2026-05-05 18:53 | 26.28384 | 47.29164 | 32843 ft | 546 kts | 127° |
| 2026-05-05 18:54 | 26.24471 | 47.36416 | 32839 ft | 546 kts | 127° |
| 2026-05-05 18:54 | 26.20556 | 47.43661 | 32842 ft | 546 kts | 127° |
| 2026-05-05 18:55 | 26.16659 | 47.50859 | 32835 ft | 546 kts | 127° |
| 2026-05-05 18:55 | 26.12743 | 47.58082 | 32832 ft | 544 kts | 127° |
| 2026-05-05 18:56 | 26.08825 | 47.65297 | 32826 ft | 545 kts | 127° |
| 2026-05-05 18:56 | 26.04900 | 47.72511 | 32815 ft | 545 kts | 127° |
| 2026-05-05 18:57 | 26.00972 | 47.79721 | 32817 ft | 545 kts | 127° |
| 2026-05-05 18:57 | 25.97044 | 47.86921 | 32812 ft | 544 kts | 127° |
| 2026-05-05 18:58 | 25.93118 | 47.94105 | 32806 ft | 544 kts | 127° |
| 2026-05-05 18:58 | 25.89184 | 48.01291 | 32782 ft | 544 kts | 127° |
| 2026-05-05 18:59 | 25.85251 | 48.08465 | 32791 ft | 544 kts | 127° |
| 2026-05-05 18:59 | 25.81316 | 48.15633 | 32785 ft | 543 kts | 127° |
| 2026-05-05 19:00 | 25.77379 | 48.22792 | 32783 ft | 544 kts | 127° |
| 2026-05-05 19:00 | 25.73437 | 48.29948 | 32783 ft | 544 kts | 127° |
| 2026-05-05 19:01 | 25.69785 | 48.37316 | 32773 ft | 552 kts | 117° |
| 2026-05-05 19:01 | 25.68650 | 48.41407 | 32775 ft | 559 kts | 106° |
| 2026-05-05 19:01 | 25.68092 | 48.45691 | 32771 ft | 563 kts | 99° |
| 2026-05-05 19:02 | 25.67453 | 48.54333 | 32774 ft | 563 kts | 97° |
| 2026-05-05 19:02 | 25.66969 | 48.62993 | 32771 ft | 563 kts | 97° |
| 2026-05-05 19:03 | 25.66459 | 48.71643 | 32770 ft | 561 kts | 97° |
| 2026-05-05 19:03 | 25.65909 | 48.80248 | 32766 ft | 559 kts | 97° |
| 2026-05-05 19:04 | 25.65340 | 48.88842 | 32763 ft | 559 kts | 97° |
| 2026-05-05 19:04 | 25.64766 | 48.97434 | 32762 ft | 559 kts | 97° |
| 2026-05-05 19:05 | 25.64193 | 49.05971 | 32759 ft | 559 kts | 97° |
| 2026-05-05 19:05 | 25.63613 | 49.14561 | 32767 ft | 558 kts | 97° |
| 2026-05-05 19:06 | 25.63030 | 49.23126 | 32767 ft | 558 kts | 97° |
| 2026-05-05 19:06 | 25.62443 | 49.31679 | 32767 ft | 555 kts | 97° |
| 2026-05-05 19:07 | 25.61857 | 49.40186 | 32755 ft | 554 kts | 97° |
| 2026-05-05 19:07 | 25.61259 | 49.48693 | 32762 ft | 553 kts | 97° |
| 2026-05-05 19:08 | 25.60656 | 49.57194 | 32765 ft | 554 kts | 97° |
| 2026-05-05 19:08 | 25.60050 | 49.65707 | 32756 ft | 555 kts | 97° |
| 2026-05-05 19:09 | 25.59438 | 49.74232 | 32715 ft | 554 kts | 97° |
| 2026-05-05 19:09 | 25.59135 | 49.78449 | 32137 ft | 548 kts | 97° |
| 2026-05-05 19:09 | 25.58829 | 49.82677 | 31195 ft | 552 kts | 96° |
| 2026-05-05 19:10 | 25.58519 | 49.86919 | 30347 ft | 552 kts | 96° |
| 2026-05-05 19:10 | 25.58208 | 49.91158 | 29527 ft | 553 kts | 96° |
| 2026-05-05 19:10 | 25.57896 | 49.95412 | 28970 ft | 555 kts | 96° |
| 2026-05-05 19:10 | 25.57584 | 49.99672 | 28780 ft | 554 kts | 96° |
| 2026-05-05 19:11 | 25.56957 | 50.08157 | 28766 ft | 552 kts | 96° |
| 2026-05-05 19:11 | 25.56252 | 50.16611 | 28760 ft | 550 kts | 101° |
| 2026-05-05 19:12 | 25.54151 | 50.24715 | 28757 ft | 547 kts | 110° |
| 2026-05-05 19:12 | 25.52969 | 50.28675 | 28236 ft | 538 kts | 111° |
| 2026-05-05 19:12 | 25.51787 | 50.32591 | 27512 ft | 534 kts | 111° |
| 2026-05-05 19:13 | 25.50617 | 50.36455 | 26965 ft | 525 kts | 110° |
| 2026-05-05 19:13 | 25.49464 | 50.40255 | 26413 ft | 518 kts | 110° |
| 2026-05-05 19:13 | 25.48321 | 50.44012 | 25802 ft | 512 kts | 110° |
| 2026-05-05 19:13 | 25.47192 | 50.47720 | 25230 ft | 505 kts | 110° |
| 2026-05-05 19:14 | 25.46075 | 50.51384 | 24658 ft | 499 kts | 110° |
| 2026-05-05 19:14 | 25.44973 | 50.54993 | 24097 ft | 493 kts | 110° |
| 2026-05-05 19:14 | 25.43882 | 50.58564 | 23540 ft | 486 kts | 110° |
| 2026-05-05 19:14 | 25.42808 | 50.62078 | 22908 ft | 480 kts | 110° |
| 2026-05-05 19:15 | 25.41679 | 50.65534 | 22205 ft | 474 kts | 112° |
| 2026-05-05 19:15 | 25.40463 | 50.68904 | 21536 ft | 468 kts | 113° |
| 2026-05-05 19:15 | 25.39663 | 50.71107 | 21097 ft | 465 kts | 112° |
| 2026-05-05 19:15 | 25.38473 | 50.74406 | 20454 ft | 459 kts | 112° |
| 2026-05-05 19:16 | 25.37302 | 50.77675 | 19805 ft | 454 kts | 112° |
| 2026-05-05 19:16 | 25.36150 | 50.80903 | 19171 ft | 449 kts | 112° |
| 2026-05-05 19:16 | 25.35012 | 50.84100 | 18545 ft | 445 kts | 111° |
| 2026-05-05 19:16 | 25.33885 | 50.87266 | 17904 ft | 440 kts | 111° |
| 2026-05-05 19:17 | 25.32773 | 50.90392 | 17230 ft | 434 kts | 111° |
| 2026-05-05 19:17 | 25.31674 | 50.93481 | 16507 ft | 430 kts | 111° |
| 2026-05-05 19:17 | 25.30583 | 50.96547 | 15721 ft | 428 kts | 111° |
| 2026-05-05 19:17 | 25.29494 | 50.99604 | 14968 ft | 427 kts | 111° |
| 2026-05-05 19:18 | 25.28410 | 51.02644 | 14244 ft | 424 kts | 111° |
| 2026-05-05 19:18 | 25.27362 | 51.05685 | 13523 ft | 422 kts | 108° |
| 2026-05-05 19:18 | 25.26848 | 51.08847 | 12764 ft | 417 kts | 91° |
| 2026-05-05 19:18 | 25.26829 | 51.12022 | 12092 ft | 411 kts | 88° |
| 2026-05-05 19:19 | 25.26880 | 51.15154 | 11412 ft | 406 kts | 88° |
| 2026-05-05 19:19 | 25.26930 | 51.18256 | 10787 ft | 401 kts | 88° |
| 2026-05-05 19:19 | 25.26971 | 51.21279 | 10483 ft | 386 kts | 88° |
| 2026-05-05 19:19 | 25.27004 | 51.24171 | 10227 ft | 372 kts | 88° |
| 2026-05-05 19:20 | 25.26748 | 51.26920 | 10032 ft | 356 kts | 101° |
| 2026-05-05 19:20 | 25.26222 | 51.29473 | 10007 ft | 337 kts | 103° |
| 2026-05-05 19:20 | 25.25689 | 51.31900 | 9886 ft | 323 kts | 103° |
| 2026-05-05 19:20 | 25.25172 | 51.34270 | 9629 ft | 314 kts | 102° |
| 2026-05-05 19:21 | 25.24669 | 51.36595 | 9239 ft | 310 kts | 102° |
| 2026-05-05 19:21 | 25.24174 | 51.38898 | 8846 ft | 306 kts | 102° |
| 2026-05-05 19:21 | 25.23686 | 51.41175 | 8453 ft | 303 kts | 102° |
| 2026-05-05 19:21 | 25.23205 | 51.43425 | 8040 ft | 300 kts | 102° |
| 2026-05-05 19:22 | 25.22717 | 51.45654 | 7639 ft | 298 kts | 103° |
| 2026-05-05 19:22 | 25.21868 | 51.47729 | 7220 ft | 298 kts | 126° |
| 2026-05-05 19:22 | 25.20291 | 51.49176 | 6817 ft | 297 kts | 153° |
| 2026-05-05 19:22 | 25.18405 | 51.50076 | 6411 ft | 295 kts | 158° |
| 2026-05-05 19:23 | 25.16499 | 51.50891 | 6004 ft | 293 kts | 158° |
| 2026-05-05 19:23 | 25.14606 | 51.51704 | 5571 ft | 291 kts | 158° |
| 2026-05-05 19:23 | 25.12723 | 51.52521 | 5190 ft | 289 kts | 158° |
| 2026-05-05 19:23 | 25.10861 | 51.53335 | 5024 ft | 284 kts | 158° |
| 2026-05-05 19:24 | 25.09080 | 51.54119 | 4985 ft | 267 kts | 158° |
| 2026-05-05 19:24 | 25.07391 | 51.54861 | 4840 ft | 257 kts | 158° |
| 2026-05-05 19:24 | 25.05741 | 51.55586 | 4562 ft | 254 kts | 157° |
| 2026-05-05 19:24 | 25.04107 | 51.56311 | 4244 ft | 252 kts | 157° |
| 2026-05-05 19:25 | 25.02490 | 51.57018 | 4036 ft | 249 kts | 157° |
| 2026-05-05 19:25 | 25.00921 | 51.57812 | 3990 ft | 248 kts | 146° |
| 2026-05-05 19:25 | 24.99740 | 51.59146 | 3773 ft | 242 kts | 116° |
| 2026-05-05 19:25 | 24.99383 | 51.60916 | 3402 ft | 237 kts | 84° |
| 2026-05-05 19:26 | 24.99788 | 51.62645 | 3099 ft | 232 kts | 68° |
| 2026-05-05 19:26 | 25.00405 | 51.64284 | 2760 ft | 231 kts | 66° |
| 2026-05-05 19:26 | 25.01031 | 51.65904 | 2558 ft | 230 kts | 66° |
| 2026-05-05 19:26 | 25.01650 | 51.67530 | 2499 ft | 230 kts | 66° |
| 2026-05-05 19:27 | 25.02270 | 51.69157 | 2496 ft | 230 kts | 65° |
| 2026-05-05 19:27 | 25.03180 | 51.70588 | 2489 ft | 230 kts | 38° |
| 2026-05-05 19:27 | 25.04657 | 51.71195 | 2504 ft | 230 kts | 7° |
| 2026-05-05 19:27 | 25.06214 | 51.71122 | 2482 ft | 218 kts | 350° |
| 2026-05-05 19:28 | 25.07598 | 51.70613 | 2497 ft | 201 kts | 339° |
| 2026-05-05 19:28 | 25.08847 | 51.70033 | 2510 ft | 192 kts | 340° |
| 2026-05-05 19:28 | 25.10084 | 51.69481 | 2501 ft | 192 kts | 341° |
| 2026-05-05 19:28 | 25.11326 | 51.68938 | 2496 ft | 192 kts | 341° |
| 2026-05-05 19:29 | 25.12574 | 51.68397 | 2490 ft | 192 kts | 341° |
| 2026-05-05 19:29 | 25.13818 | 51.67854 | 2347 ft | 191 kts | 341° |
| 2026-05-05 19:29 | 25.15046 | 51.67314 | 2113 ft | 187 kts | 340° |
| 2026-05-05 19:29 | 25.16209 | 51.66799 | 1881 ft | 174 kts | 341° |
| 2026-05-05 19:30 | 25.17309 | 51.66314 | 1669 ft | 166 kts | 340° |
| 2026-05-05 19:30 | 25.18357 | 51.65853 | 1455 ft | 157 kts | 340° |
| 2026-05-05 19:30 | 25.19328 | 51.65424 | 1267 ft | 147 kts | 340° |
| 2026-05-05 19:30 | 25.20263 | 51.65012 | 1086 ft | 140 kts | 340° |
| 2026-05-05 19:31 | 25.21154 | 51.64620 | 929 ft | 140 kts | 340° |
| 2026-05-05 19:31 | 25.22047 | 51.64213 | 773 ft | 139 kts | 337° |
| 2026-05-05 19:31 | 25.22935 | 51.63796 | 628 ft | 141 kts | 339° |
| 2026-05-05 19:31 | 25.23853 | 51.63397 | 415 ft | 143 kts | 339° |
| 2026-05-05 19:32 | 25.24758 | 51.63015 | 241 ft | 136 kts | 340° |
| 2026-05-05 19:32 | 25.25627 | 51.62639 | 59 ft | 133 kts | 340° |
| 2026-05-05 19:32 | 25.26419 | 51.62296 | 33 ft | 99 kts | 338° |
| 2026-05-05 19:32 | 25.26843 | 51.62108 | 30 ft | 52 kts | 338° |
| 2026-05-05 19:33 | 25.27164 | 51.61966 | 32 ft | 46 kts | 336° |
| 2026-05-05 19:33 | 25.27359 | 51.61844 | 33 ft | 26 kts | 320° |
| 2026-05-05 19:33 | 25.27445 | 51.61748 | 34 ft | 0 kts | 307° |
| 2026-05-05 19:35 | 25.27514 | 51.61648 | 34 ft | 15 kts | 307° |
| 2026-05-05 19:35 | 25.27540 | 51.61541 | 35 ft | 15 kts | 245° |
| 2026-05-05 19:35 | 25.27448 | 51.61530 | 35 ft | 15 kts | 158° |
| 2026-05-05 19:35 | 25.27341 | 51.61578 | 36 ft | 17 kts | 160° |
| 2026-05-05 19:36 | 25.27220 | 51.61630 | 36 ft | 20 kts | 158° |
| 2026-05-05 19:36 | 25.27140 | 51.61665 | 36 ft | 7 kts | 158° |
| 2026-05-05 19:36 | 25.27134 | 51.61668 | 36 ft | 0 kts | 158° |
| 2026-05-05 19:37 | 25.27087 | 51.61654 | 36 ft | 11 kts | 215° |
| 2026-05-05 19:37 | 25.27040 | 51.61569 | 36 ft | 16 kts | 249° |
| 2026-05-05 19:37 | 25.26992 | 51.61450 | 36 ft | 15 kts | 232° |
| 2026-05-05 19:37 | 25.26936 | 51.61421 | 36 ft | 10 kts | 202° |
| 2026-05-05 19:38 | 25.26866 | 51.61388 | 36 ft | 12 kts | 203° |
| 2026-05-05 19:38 | 25.26780 | 51.61348 | 36 ft | 15 kts | 202° |
| 2026-05-05 19:38 | 25.26676 | 51.61327 | 36 ft | 16 kts | 162° |
| 2026-05-05 19:38 | 25.26566 | 51.61376 | 36 ft | 18 kts | 159° |
| 2026-05-05 19:39 | 25.26443 | 51.61430 | 36 ft | 20 kts | 158° |
| 2026-05-05 19:39 | 25.26401 | 51.61524 | 36 ft | 14 kts | 78° |
| 2026-05-05 19:39 | 25.26436 | 51.61628 | 36 ft | 16 kts | 69° |
| 2026-05-05 19:39 | 25.26472 | 51.61727 | 36 ft | 0 kts | 68° |
| 2026-05-05 19:40 | 25.26473 | 51.61728 | 36 ft | 1 kts | 68° |
| 2026-05-05 19:40 | 25.26482 | 51.61752 | 36 ft | 5 kts | 68° |
| 2026-05-05 19:40 | 25.26493 | 51.61801 | 36 ft | 8 kts | 87° |
| 2026-05-05 19:40 | 25.26462 | 51.61847 | 36 ft | 6 kts | 161° |
| 2026-05-05 19:41 | 25.26455 | 51.61845 | 36 ft | 1 kts | 187° |
| 2026-05-05 19:41 | 25.26416 | 51.61812 | 36 ft | 11 kts | 215° |
| 2026-05-05 19:41 | 25.26386 | 51.61789 | 36 ft | 2 kts | 214° |
| 2026-05-05 19:41 | 25.26380 | 51.61784 | 35 ft | 0 kts | 215° |